Terminal Aerodrome Forecast
Issued by NWS

Current Version | Previous Version | Text Only | Print | Product List | Glossary On
Versions: 1 2 3 4 5 6 7 8 9 10 11 12
000
FTUS45 KREV 222320
TAFTVL
TAF
KTVL 222320Z 2300/2324 04006KT P6SM VCTS SCT060CB BKN090
     FM230300 VRB03KT P6SM SCT060 BKN110
     FM230900 00000KT P6SM VCFG SCT120
     FM232000 19008KT P6SM SCT080=

USA.gov is the U.S. government's official web portal to all federal, state and local government web resources and services.